Time;durP1;ratioP1;P1;durP2;ratioP2;P2;SDS_P1;SDS_P2;PMS_P1;PMS_P2;Temp;Humidity;BMP_temperature;BMP_pressure;BME280_temperature;BME280_humidity;BME280_pressure;Samples;Min_cycle;Max_cycle;Signal;HPM_P1;HPM_P2
2023/02/16 05:31:04;;;;;;;;;43.75;38.00;;;;;;;;5623810;23;46229;-60
2023/02/16 05:33:30;;;;;;;;;47.75;38.00;;;;;;;;4997273;28;45997;-61
2023/02/16 05:35:55;;;;;;;;;45.00;37.25;;;;;;;;4993099;28;45411;-59
2023/02/16 05:38:20;;;;;;;;;47.75;38.75;;;;;;;;4997720;28;45370;-59
2023/02/16 05:40:46;;;;;;;;;49.25;39.00;;;;;;;;4998617;28;46196;-60
2023/02/16 05:43:12;;;;;;;;;43.50;37.75;;;;;;;;4999292;28;45710;-60
2023/02/16 05:45:37;;;;;;;;;39.00;35.25;;;;;;;;4999469;28;45497;-59
2023/02/16 05:48:02;;;;;;;;;46.50;35.50;;;;;;;;4999627;28;45554;-59
2023/02/16 05:50:27;;;;;;;;;40.50;35.00;;;;;;;;4998677;28;46379;-59
2023/02/16 05:52:53;;;;;;;;;37.50;35.25;;;;;;;;4987343;28;45202;-59
2023/02/16 05:55:18;;;;;;;;;47.50;37.75;;;;;;;;4999478;28;45393;-59
2023/02/16 05:57:43;;;;;;;;;44.00;37.75;;;;;;;;4998818;28;45578;-59
2023/02/16 06:00:09;;;;;;;;;38.75;34.75;;;;;;;;4992392;28;45599;-59
2023/02/16 06:02:34;;;;;;;;;44.75;36.25;;;;;;;;4999051;28;45321;-60
2023/02/16 06:04:59;;;;;;;;;41.50;36.00;;;;;;;;5000018;28;45398;-60
2023/02/16 06:07:24;;;;;;;;;46.50;35.50;;;;;;;;4998019;28;45798;-60
2023/02/16 06:09:49;;;;;;;;;42.75;38.00;;;;;;;;4991210;28;45368;-60
2023/02/16 06:12:14;;;;;;;;;47.50;38.50;;;;;;;;4996984;28;45746;-60
2023/02/16 06:14:40;;;;;;;;;45.50;37.75;;;;;;;;4997952;28;45336;-59
2023/02/16 06:17:05;;;;;;;;;44.00;38.25;;;;;;;;4998198;28;45395;-59
2023/02/16 06:19:31;;;;;;;;;44.25;36.25;;;;;;;;4998963;28;46096;-61
2023/02/16 06:21:56;;;;;;;;;48.00;35.00;;;;;;;;4997954;28;45776;-60
2023/02/16 06:24:21;;;;;;;;;33.00;32.75;;;;;;;;4998214;28;45843;-60
2023/02/16 06:26:46;;;;;;;;;45.75;38.25;;;;;;;;4998436;28;45665;-60
2023/02/16 06:29:12;;;;;;;;;49.75;39.00;;;;;;;;4998932;28;46379;-60
2023/02/16 06:31:37;;;;;;;;;46.00;38.00;;;;;;;;4996545;28;45858;-61
2023/02/16 06:34:03;;;;;;;;;44.75;36.00;;;;;;;;4992942;28;48146;-61
2023/02/16 06:36:28;;;;;;;;;37.25;34.25;;;;;;;;4995628;28;45768;-59
2023/02/16 06:38:53;;;;;;;;;46.25;40.00;;;;;;;;4996419;28;45493;-59
2023/02/16 06:41:30;;;;;;;;;49.00;40.75;;;;;;;;4996707;28;45408;-61
2023/02/16 06:43:57;;;;;;;;;53.00;42.25;;;;;;;;4996353;28;45435;-61
2023/02/16 06:46:22;;;;;;;;;54.50;43.25;;;;;;;;5000771;28;45598;-62
2023/02/16 06:48:47;;;;;;;;;52.50;42.50;;;;;;;;5000949;28;47714;-60
2023/02/16 06:51:15;;;;;;;;;44.25;37.00;;;;;;;;4999140;28;45324;-60
2023/02/16 06:53:40;;;;;;;;;50.75;41.00;;;;;;;;4998670;28;45518;-59
2023/02/16 06:56:06;;;;;;;;;47.50;38.50;;;;;;;;4999500;28;45413;-60
2023/02/16 06:58:31;;;;;;;;;48.75;40.25;;;;;;;;5002104;28;46080;-60
2023/02/16 07:00:57;;;;;;;;;50.25;42.75;;;;;;;;4997697;28;45446;-59
2023/02/16 07:03:22;;;;;;;;;54.25;43.50;;;;;;;;4998718;28;45548;-61
2023/02/16 07:05:48;;;;;;;;;57.75;47.75;;;;;;;;4998155;28;45402;-59
2023/02/16 07:08:13;;;;;;;;;53.50;43.00;;;;;;;;4998009;28;45831;-59
2023/02/16 07:10:43;;;;;;;;;56.50;45.50;;;;;;;;4997525;28;45419;-60
2023/02/16 07:13:08;;;;;;;;;52.00;43.25;;;;;;;;4998518;28;45344;-60
2023/02/16 07:15:33;;;;;;;;;55.50;46.25;;;;;;;;5001639;28;45434;-60
2023/02/16 07:17:58;;;;;;;;;60.25;47.50;;;;;;;;4992435;28;45713;-60
2023/02/16 07:20:25;;;;;;;;;62.00;45.00;;;;;;;;4994903;28;45435;-60
2023/02/16 07:22:50;;;;;;;;;57.00;43.75;;;;;;;;4995741;28;45341;-60
2023/02/16 07:25:16;;;;;;;;;54.00;44.25;;;;;;;;4997660;28;45612;-60
2023/02/16 07:27:41;;;;;;;;;58.00;46.75;;;;;;;;4996608;28;45486;-60
2023/02/16 07:30:07;;;;;;;;;51.00;42.50;;;;;;;;4995577;28;45675;-60
2023/02/16 07:32:33;;;;;;;;;56.25;44.75;;;;;;;;4997355;28;45429;-60
2023/02/16 07:34:58;;;;;;;;;51.75;42.00;;;;;;;;4998053;28;45364;-60
2023/02/16 07:37:23;;;;;;;;;53.50;43.00;;;;;;;;4998192;28;45441;-60
2023/02/16 07:39:49;;;;;;;;;56.75;43.50;;;;;;;;4996908;28;45281;-60
2023/02/16 07:42:14;;;;;;;;;57.00;43.00;;;;;;;;4997878;28;45551;-60
2023/02/16 07:44:39;;;;;;;;;55.25;44.00;;;;;;;;4991855;28;45290;-60
2023/02/16 07:47:04;;;;;;;;;51.25;42.00;;;;;;;;4998509;28;46385;-60
2023/02/16 07:49:29;;;;;;;;;53.00;40.50;;;;;;;;5001122;28;45698;-60
2023/02/16 07:51:55;;;;;;;;;53.50;41.25;;;;;;;;4997745;28;45354;-60
2023/02/16 07:54:20;;;;;;;;;49.00;39.00;;;;;;;;4995905;28;45573;-60
2023/02/16 07:56:45;;;;;;;;;47.75;41.00;;;;;;;;4997776;28;45337;-60
2023/02/16 07:59:11;;;;;;;;;49.75;41.00;;;;;;;;4995085;28;45644;-61
2023/02/16 08:01:36;;;;;;;;;53.50;43.25;;;;;;;;5003144;28;45403;-60
2023/02/16 08:04:01;;;;;;;;;55.25;41.75;;;;;;;;4996898;28;45274;-61
2023/02/16 08:06:27;;;;;;;;;57.50;43.75;;;;;;;;4998256;28;47295;-61
2023/02/16 08:08:52;;;;;;;;;51.00;39.25;;;;;;;;4996901;28;45747;-61
2023/02/16 08:11:18;;;;;;;;;40.50;35.75;;;;;;;;4994429;28;45589;-61
2023/02/16 08:13:44;;;;;;;;;47.75;37.50;;;;;;;;4994399;28;45383;-60
2023/02/16 08:16:11;;;;;;;;;49.25;40.25;;;;;;;;4992127;28;45972;-61
2023/02/16 08:18:37;;;;;;;;;42.00;34.75;;;;;;;;4995090;28;45679;-60
2023/02/16 08:21:08;;;;;;;;;55.00;42.25;;;;;;;;5004769;28;45912;-62
2023/02/16 08:23:33;;;;;;;;;51.00;42.25;;;;;;;;4989257;28;45642;-63
2023/02/16 08:26:05;;;;;;;;;53.00;39.25;;;;;;;;4999794;28;45948;-60
2023/02/16 08:28:30;;;;;;;;;46.00;38.25;;;;;;;;4999332;28;45492;-60
2023/02/16 08:30:55;;;;;;;;;43.75;36.75;;;;;;;;5000569;28;45483;-60
2023/02/16 08:33:21;;;;;;;;;43.75;38.00;;;;;;;;4997878;28;45645;-60
2023/02/16 08:35:46;;;;;;;;;50.50;40.75;;;;;;;;4995828;28;45815;-61
2023/02/16 08:38:11;;;;;;;;;48.00;39.75;;;;;;;;4998853;28;45444;-61
2023/02/16 08:40:36;;;;;;;;;47.00;39.50;;;;;;;;5005002;28;45504;-61
2023/02/16 08:43:01;;;;;;;;;48.75;41.50;;;;;;;;5002646;28;45436;-61
2023/02/16 08:45:28;;;;;;;;;50.25;38.25;;;;;;;;5002187;28;45593;-61
2023/02/16 08:47:53;;;;;;;;;42.75;35.50;;;;;;;;4997824;28;45375;-61
2023/02/16 08:50:18;;;;;;;;;46.50;38.75;;;;;;;;4994911;28;45485;-61
2023/02/16 08:52:44;;;;;;;;;48.00;40.25;;;;;;;;4992967;28;45708;-61
2023/02/16 08:55:09;;;;;;;;;40.00;34.25;;;;;;;;4993598;28;46082;-61
2023/02/16 08:57:35;;;;;;;;;50.00;39.25;;;;;;;;4992390;28;45454;-61
2023/02/16 09:02:44;;;;;;;;;48.75;37.00;;;;;;;;5000144;28;45507;-61
2023/02/16 09:05:09;;;;;;;;;45.25;38.00;;;;;;;;5001539;28;45655;-60
2023/02/16 09:07:34;;;;;;;;;45.00;36.50;;;;;;;;4999628;28;45493;-60
2023/02/16 09:10:00;;;;;;;;;47.75;36.75;;;;;;;;5000859;28;45552;-60
2023/02/16 09:12:25;;;;;;;;;48.75;39.25;;;;;;;;5001812;28;45444;-60
2023/02/16 09:14:52;;;;;;;;;47.25;39.50;;;;;;;;5000634;28;46082;-60
2023/02/16 09:17:18;;;;;;;;;48.25;40.00;;;;;;;;5001266;28;45504;-60
2023/02/16 09:19:43;;;;;;;;;47.50;37.50;;;;;;;;4999836;28;45475;-60
2023/02/16 09:22:09;;;;;;;;;50.00;39.75;;;;;;;;5001216;28;45363;-60
2023/02/16 09:24:34;;;;;;;;;48.25;40.75;;;;;;;;5002773;28;47056;-60
2023/02/16 09:27:00;;;;;;;;;51.75;42.00;;;;;;;;5002075;28;45451;-60
2023/02/16 09:29:25;;;;;;;;;44.50;37.50;;;;;;;;5002928;28;45361;-60
2023/02/16 09:31:52;;;;;;;;;47.25;39.75;;;;;;;;5010497;28;45565;-61
2023/02/16 09:34:19;;;;;;;;;48.50;40.50;;;;;;;;5002667;28;45474;-60
2023/02/16 09:36:46;;;;;;;;;44.25;36.50;;;;;;;;5000628;28;45483;-60
2023/02/16 09:39:11;;;;;;;;;50.75;39.75;;;;;;;;4998192;28;45391;-60
2023/02/16 09:41:39;;;;;;;;;47.00;37.75;;;;;;;;4998549;28;45433;-61
2023/02/16 09:44:24;;;;;;;;;51.25;41.00;;;;;;;;5000708;28;45534;-61
2023/02/16 09:46:50;;;;;;;;;40.00;35.25;;;;;;;;4999423;28;45584;-60
2023/02/16 09:49:35;;;;;;;;;48.25;37.25;;;;;;;;5002293;28;45401;-60
2023/02/16 09:52:07;;;;;;;;;47.00;38.25;;;;;;;;5001280;28;45549;-59
2023/02/16 09:54:41;;;;;;;;;46.50;38.50;;;;;;;;4997133;28;45515;-60
2023/02/16 09:57:26;;;;;;;;;45.50;37.25;;;;;;;;5003642;28;45427;-60
2023/02/16 09:59:51;;;;;;;;;46.50;39.00;;;;;;;;4993477;28;45476;-60
2023/02/16 10:02:36;;;;;;;;;46.50;37.25;;;;;;;;4999514;28;45416;-60
2023/02/16 10:05:16;;;;;;;;;45.75;38.75;;;;;;;;4997845;28;45475;-61
2023/02/16 10:07:59;;;;;;;;;45.67;38.33;;;;;;;;4998483;28;45277;-60
2023/02/16 10:10:28;;;;;;;;;42.75;37.50;;;;;;;;5005994;28;45350;-61
2023/02/16 10:12:57;;;;;;;;;47.67;37.00;;;;;;;;5002176;28;45595;-60
2023/02/16 10:15:25;;;;;;;;;47.50;38.25;;;;;;;;5004185;28;45494;-60
2023/02/16 10:17:56;;;;;;;;;46.25;39.00;;;;;;;;5001230;28;45531;-61
2023/02/16 10:20:22;;;;;;;;;42.25;36.50;;;;;;;;4994904;28;45711;-60
2023/02/16 10:22:51;;;;;;;;;43.00;35.67;;;;;;;;5005265;28;45457;-61
2023/02/16 10:25:19;;;;;;;;;44.67;36.33;;;;;;;;4998546;28;46375;-60
2023/02/16 10:27:46;;;;;;;;;42.67;35.67;;;;;;;;4999725;28;45538;-61
2023/02/16 10:30:19;;;;;;;;;51.25;40.25;;;;;;;;5000701;28;45423;-61
2023/02/16 10:32:56;;;;;;;;;39.67;35.67;;;;;;;;4998135;28;45307;-59
2023/02/16 10:35:31;;;;;;;;;39.00;33.00;;;;;;;;5008673;28;46189;-61
2023/02/16 10:38:02;;;;;;;;;44.00;36.33;;;;;;;;5001061;28;45464;-60
2023/02/16 10:40:36;;;;;;;;;48.75;38.75;;;;;;;;5000693;28;45561;-60
2023/02/16 10:43:04;;;;;;;;;42.25;35.75;;;;;;;;5001025;28;45466;-60
2023/02/16 10:45:30;;;;;;;;;37.75;34.00;;;;;;;;4998316;28;47148;-59
2023/02/16 10:47:55;;;;;;;;;45.33;35.67;;;;;;;;5000062;28;45408;-60
2023/02/16 10:50:21;;;;;;;;;42.33;32.33;;;;;;;;4997713;28;45541;-60
2023/02/16 10:52:47;;;;;;;;;39.00;35.00;;;;;;;;5002125;28;45400;-59
2023/02/16 10:55:12;;;;;;;;;45.00;36.00;;;;;;;;5005352;28;45471;-60
2023/02/16 10:57:38;;;;;;;;;38.67;32.67;;;;;;;;5001808;28;45501;-60
2023/02/16 11:00:07;;;;;;;;;41.25;36.00;;;;;;;;5003443;28;45503;-59
2023/02/16 11:02:35;;;;;;;;;44.33;34.00;;;;;;;;5002752;28;45996;-60
2023/02/16 11:05:00;;;;;;;;;43.33;35.00;;;;;;;;5015950;28;45467;-60
2023/02/16 11:07:27;;;;;;;;;40.67;35.00;;;;;;;;4998989;28;45557;-60
2023/02/16 11:09:54;;;;;;;;;43.33;32.00;;;;;;;;5006567;28;45371;-60
2023/02/16 11:12:28;;;;;;;;;33.33;32.33;;;;;;;;5010991;28;45452;-61
2023/02/16 11:15:02;;;;;;;;;32.67;28.00;;;;;;;;5013970;28;46371;-61
2023/02/16 11:17:27;;;;;;;;;27.67;24.67;;;;;;;;5014455;28;45381;-61
2023/02/16 11:19:57;;;;;;;;;29.00;24.67;;;;;;;;4998111;28;45793;-61
2023/02/16 11:22:36;;;;;;;;;29.00;25.33;;;;;;;;4999625;28;45489;-61
2023/02/16 11:25:17;;;;;;;;;46.00;38.00;;;;;;;;4998629;28;46179;-61
2023/02/16 11:27:52;;;;;;;;;23.67;22.67;;;;;;;;4998217;28;46771;-61
2023/02/16 11:30:22;;;;;;;;;26.33;24.67;;;;;;;;4997757;28;47098;-60
2023/02/16 11:32:49;;;;;;;;;26.00;26.00;;;;;;;;5000711;28;45331;-61
2023/02/16 11:35:15;;;;;;;;;27.67;23.33;;;;;;;;5001946;28;46879;-61
2023/02/16 11:37:40;;;;;;;;;24.33;22.33;;;;;;;;4996062;28;45822;-61
2023/02/16 11:40:17;;;;;;;;;25.33;23.00;;;;;;;;4990833;28;45576;-61
2023/02/16 11:42:47;;;;;;;;;32.67;26.33;;;;;;;;4998193;28;45944;-61
2023/02/16 11:45:23;;;;;;;;;26.00;22.00;;;;;;;;4991604;28;45513;-61
2023/02/16 11:47:53;;;;;;;;;21.33;20.33;;;;;;;;5006095;28;45447;-61
2023/02/16 11:50:25;;;;;;;;;19.00;18.33;;;;;;;;5013876;28;45455;-62
2023/02/16 11:53:17;;;;;;;;;25.00;25.00;;;;;;;;4999477;28;45576;-61
2023/02/16 11:55:43;;;;;;;;;22.67;22.00;;;;;;;;4995147;28;45980;-62
2023/02/16 11:58:21;;;;;;;;;18.33;17.33;;;;;;;;5000333;28;45515;-61
2023/02/16 12:00:56;;;;;;;;;24.67;23.00;;;;;;;;4991145;28;45590;-62
2023/02/16 12:03:25;;;;;;;;;22.00;20.33;;;;;;;;5013359;28;45465;-62
2023/02/16 12:06:04;;;;;;;;;21.67;20.33;;;;;;;;4998400;28;46301;-62
2023/02/16 12:08:45;;;;;;;;;13.67;13.67;;;;;;;;5000373;28;45545;-62
2023/02/16 12:11:16;;;;;;;;;21.33;20.00;;;;;;;;5009115;28;45419;-61
2023/02/16 12:14:00;;;;;;;;;18.33;17.33;;;;;;;;5000577;28;45489;-61
2023/02/16 12:16:44;;;;;;;;;17.33;16.00;;;;;;;;5002879;28;45608;-62
2023/02/16 12:19:15;;;;;;;;;22.00;18.33;;;;;;;;5001148;28;47359;-61
2023/02/16 12:21:46;;;;;;;;;26.33;25.33;;;;;;;;4998686;28;45900;-61
2023/02/16 12:24:41;;;;;;;;;18.67;16.00;;;;;;;;4992729;28;45435;-61
2023/02/16 12:27:14;;;;;;;;;15.00;15.00;;;;;;;;4992703;28;46277;-60
2023/02/16 12:30:08;;;;;;;;;17.00;14.00;;;;;;;;4993782;28;45411;-61
2023/02/16 12:32:59;;;;;;;;;19.33;14.67;;;;;;;;4999917;28;45546;-61
2023/02/16 12:35:43;;;;;;;;;14.33;14.33;;;;;;;;4999578;28;45480;-61
2023/02/16 12:38:16;;;;;;;;;14.33;11.33;;;;;;;;4994402;28;45832;-61
2023/02/16 12:40:49;;;;;;;;;16.00;15.33;;;;;;;;5001097;28;46006;-61
2023/02/16 12:43:23;;;;;;;;;15.67;13.33;;;;;;;;4992388;28;45366;-61
2023/02/16 12:45:49;;;;;;;;;13.00;12.67;;;;;;;;5005797;28;45613;-61
2023/02/16 12:48:35;;;;;;;;;12.00;10.33;;;;;;;;5003310;28;46176;-61
2023/02/16 12:51:01;;;;;;;;;13.33;11.00;;;;;;;;5007839;28;45736;-62
2023/02/16 12:53:36;;;;;;;;;7.33;6.00;;;;;;;;5007429;28;45453;-61
2023/02/16 12:56:06;;;;;;;;;17.00;11.00;;;;;;;;5005490;28;45406;-62
2023/02/16 12:58:34;;;;;;;;;11.33;11.33;;;;;;;;5005626;28;47102;-61
2023/02/16 13:01:01;;;;;;;;;11.33;10.33;;;;;;;;5010090;28;45503;-62
2023/02/16 13:03:32;;;;;;;;;11.33;10.00;;;;;;;;5009717;28;45346;-62
2023/02/16 13:06:18;;;;;;;;;12.00;10.00;;;;;;;;5019422;28;45738;-61
2023/02/16 13:08:55;;;;;;;;;9.67;9.67;;;;;;;;5004838;28;46604;-61
2023/02/16 13:11:23;;;;;;;;;13.00;11.33;;;;;;;;5000857;28;45472;-61
2023/02/16 13:13:50;;;;;;;;;10.33;10.33;;;;;;;;5001116;28;46382;-61
2023/02/16 13:16:30;;;;;;;;;10.00;10.00;;;;;;;;5001867;28;45502;-61
2023/02/16 13:18:56;;;;;;;;;14.33;11.33;;;;;;;;5003328;28;45435;-62
2023/02/16 13:21:31;;;;;;;;;13.00;11.67;;;;;;;;5007784;28;45278;-62
2023/02/16 13:23:59;;;;;;;;;10.33;9.33;;;;;;;;5005564;28;45372;-62
2023/02/16 13:26:38;;;;;;;;;12.33;11.00;;;;;;;;5005608;28;45328;-61
2023/02/16 13:29:03;;;;;;;;;11.00;11.00;;;;;;;;5003063;28;46406;-61
2023/02/16 13:31:28;;;;;;;;;11.67;10.33;;;;;;;;5007435;28;45863;-61
2023/02/16 13:33:54;;;;;;;;;9.00;9.00;;;;;;;;5004072;28;45362;-61
2023/02/16 13:36:26;;;;;;;;;7.67;6.00;;;;;;;;5010023;28;45601;-61
2023/02/16 13:39:10;;;;;;;;;4.67;4.00;;;;;;;;5005632;28;47008;-61
2023/02/16 13:41:41;;;;;;;;;7.67;7.67;;;;;;;;5007707;28;45401;-61
2023/02/16 13:44:09;;;;;;;;;6.00;6.00;;;;;;;;5004567;28;45538;-61
2023/02/16 13:46:41;;;;;;;;;6.67;6.00;;;;;;;;5005315;28;45856;-61
2023/02/16 13:49:26;;;;;;;;;7.33;6.00;;;;;;;;5008419;28;45456;-61
2023/02/16 13:51:51;;;;;;;;;8.00;8.00;;;;;;;;4995616;28;45459;-61
2023/02/16 13:54:23;;;;;;;;;3.00;3.00;;;;;;;;5001323;28;45444;-61
2023/02/16 13:56:48;;;;;;;;;6.00;6.00;;;;;;;;5006429;28;45637;-61
2023/02/16 13:59:13;;;;;;;;;6.00;5.67;;;;;;;;5000190;28;45517;-61
2023/02/16 14:01:42;;;;;;;;;10.00;6.00;;;;;;;;5005122;28;45396;-61
2023/02/16 14:04:13;;;;;;;;;4.00;4.00;;;;;;;;5013459;28;45284;-61
2023/02/16 14:06:41;;;;;;;;;8.00;8.00;;;;;;;;5014532;28;45695;-61
2023/02/16 14:09:09;;;;;;;;;8.67;5.00;;;;;;;;5010824;28;45343;-61
2023/02/16 14:11:56;;;;;;;;;7.33;7.33;;;;;;;;5010243;28;45395;-61
2023/02/16 14:14:24;;;;;;;;;9.67;9.00;;;;;;;;4991777;28;45589;-61
2023/02/16 14:16:49;;;;;;;;;12.67;11.33;;;;;;;;5010001;28;45504;-61
2023/02/16 14:19:20;;;;;;;;;9.67;8.00;;;;;;;;5010565;28;46077;-61
2023/02/16 14:21:46;;;;;;;;;8.00;8.00;;;;;;;;5011661;28;45474;-62
2023/02/16 14:24:22;;;;;;;;;6.00;5.00;;;;;;;;5012600;28;45410;-62
2023/02/16 14:26:51;;;;;;;;;8.00;6.33;;;;;;;;5008755;28;45396;-61
2023/02/16 14:29:19;;;;;;;;;7.00;7.00;;;;;;;;5012551;28;46431;-62
2023/02/16 14:31:49;;;;;;;;;8.67;8.00;;;;;;;;5003393;28;45339;-62
2023/02/16 14:34:26;;;;;;;;;12.00;10.33;;;;;;;;5002050;28;45690;-62
2023/02/16 14:37:27;;;;;;;;;13.33;10.00;;;;;;;;5007802;28;45666;-61
2023/02/16 14:39:54;;;;;;;;;9.00;9.00;;;;;;;;4994284;28;47065;-61
2023/02/16 14:42:30;;;;;;;;;8.67;5.67;;;;;;;;4997791;28;45435;-60
2023/02/16 14:45:04;;;;;;;;;7.00;7.00;;;;;;;;4990336;28;46848;-60
2023/02/16 14:47:38;;;;;;;;;7.00;7.00;;;;;;;;5000782;28;45465;-60
2023/02/16 14:50:15;;;;;;;;;6.33;6.33;;;;;;;;4999410;28;45755;-60
2023/02/16 14:52:46;;;;;;;;;6.67;6.00;;;;;;;;4997351;28;45476;-60
2023/02/16 14:55:28;;;;;;;;;6.00;5.00;;;;;;;;4998672;28;45988;-60
2023/02/16 14:58:01;;;;;;;;;4.00;4.00;;;;;;;;4998098;28;45471;-60
2023/02/16 15:00:27;;;;;;;;;5.33;3.00;;;;;;;;4997290;28;46982;-60
2023/02/16 15:02:55;;;;;;;;;4.33;4.33;;;;;;;;4998455;28;45720;-60
2023/02/16 15:05:22;;;;;;;;;5.00;5.00;;;;;;;;4998696;28;45400;-60
2023/02/16 15:07:50;;;;;;;;;5.00;5.00;;;;;;;;4992551;28;48310;-60
2023/02/16 15:10:20;;;;;;;;;6.00;6.00;;;;;;;;4997256;28;46167;-72
2023/02/16 15:12:47;;;;;;;;;5.00;5.00;;;;;;;;4998834;28;45761;-74
2023/02/16 15:15:18;;;;;;;;;9.00;6.00;;;;;;;;4994630;28;46690;-73
2023/02/16 15:17:44;;;;;;;;;7.33;6.00;;;;;;;;5003600;28;45506;-73
2023/02/16 15:20:16;;;;;;;;;7.67;7.00;;;;;;;;5005723;28;45439;-73
2023/02/16 15:22:51;;;;;;;;;9.33;8.00;;;;;;;;4997748;28;46132;-73
2023/02/16 15:25:37;;;;;;;;;4.00;4.00;;;;;;;;4996661;28;45390;-72
2023/02/16 15:28:03;;;;;;;;;6.00;6.00;;;;;;;;4996679;28;45478;-72
2023/02/16 15:30:33;;;;;;;;;8.00;6.67;;;;;;;;5002821;28;45308;-72
2023/02/16 15:33:00;;;;;;;;;6.67;5.00;;;;;;;;5002759;28;45677;-72
2023/02/16 15:35:28;;;;;;;;;4.67;4.67;;;;;;;;5004428;28;45535;-72
2023/02/16 15:38:05;;;;;;;;;3.00;3.00;;;;;;;;4996472;28;46131;-72
2023/02/16 15:40:32;;;;;;;;;6.00;6.00;;;;;;;;4998963;28;46146;-73
2023/02/16 15:43:06;;;;;;;;;6.33;6.00;;;;;;;;5002100;28;45548;-72
2023/02/16 15:45:36;;;;;;;;;2.00;2.00;;;;;;;;5005291;28;45612;-72
2023/02/16 15:48:22;;;;;;;;;4.67;4.00;;;;;;;;4995368;28;45460;-72
2023/02/16 15:50:48;;;;;;;;;6.00;4.33;;;;;;;;5001261;28;47131;-73
2023/02/16 15:53:13;;;;;;;;;7.67;5.00;;;;;;;;5007960;28;45403;-74
2023/02/16 15:55:43;;;;;;;;;6.00;3.67;;;;;;;;4995970;28;45487;-72
2023/02/16 15:58:11;;;;;;;;;4.33;4.33;;;;;;;;5007846;28;45406;-72
2023/02/16 16:00:39;;;;;;;;;5.00;4.00;;;;;;;;4999344;28;46323;-73
2023/02/16 16:03:07;;;;;;;;;7.00;6.00;;;;;;;;5000999;28;45306;-73
2023/02/16 16:05:40;;;;;;;;;4.00;4.00;;;;;;;;4996415;28;45413;-73
2023/02/16 16:08:07;;;;;;;;;5.67;4.67;;;;;;;;5001626;28;45843;-74
2023/02/16 16:10:35;;;;;;;;;7.00;7.00;;;;;;;;4997409;28;45514;-73
2023/02/16 16:13:02;;;;;;;;;6.67;6.00;;;;;;;;4994356;28;45450;-73
2023/02/16 16:15:28;;;;;;;;;4.33;4.33;;;;;;;;4997941;28;45528;-73
2023/02/16 16:17:53;;;;;;;;;7.00;6.00;;;;;;;;4995535;28;45679;-73
2023/02/16 16:20:29;;;;;;;;;6.00;3.00;;;;;;;;4998090;28;47269;-75
2023/02/16 16:22:57;;;;;;;;;5.67;5.67;;;;;;;;5005006;28;45484;-74
2023/02/16 16:25:29;;;;;;;;;4.00;4.00;;;;;;;;5003748;28;45458;-72
2023/02/16 16:27:54;;;;;;;;;4.67;4.67;;;;;;;;5001658;28;45454;-72
2023/02/16 16:30:19;;;;;;;;;5.67;4.00;;;;;;;;5000834;28;45637;-72
2023/02/16 16:32:45;;;;;;;;;3.00;3.00;;;;;;;;5006337;28;45353;-73
2023/02/16 16:35:33;;;;;;;;;5.67;5.67;;;;;;;;5001952;28;45369;-73
2023/02/16 16:37:58;;;;;;;;;6.00;6.00;;;;;;;;4992073;28;45777;-72
2023/02/16 16:40:32;;;;;;;;;7.67;7.33;;;;;;;;5001801;28;46695;-73
2023/02/16 16:43:01;;;;;;;;;6.00;6.00;;;;;;;;5001111;28;45549;-73
2023/02/16 16:45:32;;;;;;;;;6.33;5.00;;;;;;;;4997992;28;45521;-74
2023/02/16 16:47:58;;;;;;;;;6.00;6.00;;;;;;;;4994375;28;45713;-74
2023/02/16 16:50:29;;;;;;;;;6.33;6.33;;;;;;;;5010693;28;46064;-73
2023/02/16 16:52:54;;;;;;;;;7.33;6.33;;;;;;;;5000676;28;45631;-74
2023/02/16 16:55:22;;;;;;;;;8.00;6.33;;;;;;;;5002156;28;45531;-74
2023/02/16 16:57:55;;;;;;;;;5.67;5.67;;;;;;;;5002487;28;45487;-72
2023/02/16 17:00:21;;;;;;;;;7.00;6.00;;;;;;;;4993910;28;46848;-74
2023/02/16 17:02:46;;;;;;;;;6.00;5.00;;;;;;;;4998860;28;45653;-74
2023/02/16 17:05:11;;;;;;;;;6.33;5.00;;;;;;;;5002424;28;45404;-74
2023/02/16 17:07:37;;;;;;;;;5.00;5.00;;;;;;;;5009031;28;45352;-73
2023/02/16 17:10:02;;;;;;;;;8.00;6.67;;;;;;;;4999998;28;45475;-73
2023/02/16 17:12:28;;;;;;;;;7.33;6.33;;;;;;;;5005294;28;45434;-74
2023/02/16 17:14:53;;;;;;;;;10.00;7.67;;;;;;;;4999633;28;45450;-74
2023/02/16 17:17:19;;;;;;;;;8.67;7.33;;;;;;;;4999777;28;45621;-74
2023/02/16 17:19:44;;;;;;;;;9.67;7.33;;;;;;;;5003135;28;46280;-74
2023/02/16 17:22:13;;;;;;;;;7.33;7.33;;;;;;;;5007685;28;45522;-72
2023/02/16 17:24:38;;;;;;;;;8.00;8.00;;;;;;;;5009086;28;45372;-73
2023/02/16 17:27:04;;;;;;;;;8.00;8.00;;;;;;;;5000243;28;46767;-72
2023/02/16 17:29:29;;;;;;;;;10.33;8.00;;;;;;;;4998497;28;45607;-71
2023/02/16 17:31:54;;;;;;;;;7.67;7.67;;;;;;;;5001166;28;45403;-72
2023/02/16 17:34:19;;;;;;;;;11.33;10.33;;;;;;;;4998867;28;45470;-72
2023/02/16 17:36:44;;;;;;;;;8.00;7.67;;;;;;;;4995415;28;45466;-72
2023/02/16 17:39:10;;;;;;;;;13.33;10.00;;;;;;;;4998416;28;45347;-72
2023/02/16 17:41:35;;;;;;;;;11.33;9.33;;;;;;;;5002164;28;45556;-73
2023/02/16 17:44:02;;;;;;;;;10.33;9.33;;;;;;;;4997909;28;45527;-72
2023/02/16 17:46:29;;;;;;;;;10.67;10.67;;;;;;;;4992168;28;47086;-60
2023/02/16 17:48:54;;;;;;;;;9.00;8.33;;;;;;;;4996651;28;45626;-63
2023/02/16 17:51:21;;;;;;;;;11.67;11.00;;;;;;;;4998066;28;45522;-61
2023/02/16 17:53:46;;;;;;;;;8.00;8.00;;;;;;;;4996311;28;45517;-61
2023/02/16 17:56:13;;;;;;;;;11.67;11.67;;;;;;;;4998676;28;45569;-62
2023/02/16 17:58:38;;;;;;;;;12.33;9.33;;;;;;;;4997028;28;47038;-61
2023/02/16 18:01:03;;;;;;;;;9.67;9.67;;;;;;;;4997076;28;45475;-60
2023/02/16 18:03:29;;;;;;;;;11.33;9.33;;;;;;;;4997833;28;45650;-63
2023/02/16 18:05:54;;;;;;;;;12.67;12.00;;;;;;;;4997960;28;45563;-62
2023/02/16 18:08:20;;;;;;;;;11.67;11.67;;;;;;;;5001947;28;46093;-63
2023/02/16 18:10:47;;;;;;;;;13.33;13.33;;;;;;;;5000657;28;45376;-67
2023/02/16 18:13:13;;;;;;;;;15.00;12.00;;;;;;;;4997496;28;45580;-65
2023/02/16 18:15:39;;;;;;;;;13.67;12.00;;;;;;;;5001369;28;45511;-61
2023/02/16 18:18:04;;;;;;;;;19.67;18.00;;;;;;;;4993787;28;45704;-61
2023/02/16 18:20:30;;;;;;;;;21.00;17.00;;;;;;;;5006407;28;45934;-62
2023/02/16 18:22:55;;;;;;;;;15.00;11.67;;;;;;;;5002135;28;45461;-63
2023/02/16 18:25:20;;;;;;;;;12.67;7.00;;;;;;;;4989285;28;46097;-62
2023/02/16 18:27:45;;;;;;;;;11.00;11.00;;;;;;;;4994674;28;46451;-64
2023/02/16 18:30:12;;;;;;;;;12.67;11.67;;;;;;;;4990744;28;45602;-63
2023/02/16 18:32:37;;;;;;;;;9.67;9.33;;;;;;;;4995289;28;46224;-62
2023/02/16 18:35:03;;;;;;;;;10.00;9.00;;;;;;;;4998769;28;45593;-62
2023/02/16 18:37:28;;;;;;;;;16.33;14.67;;;;;;;;4999265;28;46276;-62
2023/02/16 18:39:53;;;;;;;;;15.33;10.67;;;;;;;;4999735;28;45452;-62
2023/02/16 18:42:19;;;;;;;;;11.67;11.67;;;;;;;;4997185;28;45613;-63
2023/02/16 18:44:46;;;;;;;;;13.00;11.67;;;;;;;;4997129;28;45725;-62
2023/02/16 18:47:12;;;;;;;;;14.00;13.67;;;;;;;;4992078;28;47170;-63
2023/02/16 18:49:37;;;;;;;;;13.33;13.33;;;;;;;;4993378;28;45460;-63
2023/02/16 18:52:02;;;;;;;;;15.00;14.00;;;;;;;;4994823;28;47354;-62
2023/02/16 18:54:28;;;;;;;;;14.33;11.67;;;;;;;;5002704;28;45503;-62
2023/02/16 18:56:53;;;;;;;;;11.33;11.33;;;;;;;;5002548;28;46916;-62
2023/02/16 18:59:18;;;;;;;;;13.33;11.33;;;;;;;;4998597;28;46794;-63
2023/02/16 19:01:43;;;;;;;;;15.00;13.00;;;;;;;;4999508;28;45490;-61
2023/02/16 19:04:10;;;;;;;;;13.67;10.33;;;;;;;;4996336;28;45475;-62
2023/02/16 19:06:36;;;;;;;;;14.67;12.33;;;;;;;;5000500;28;47044;-62
2023/02/16 19:09:01;;;;;;;;;12.67;11.67;;;;;;;;4993880;28;45526;-62
2023/02/16 19:11:31;;;;;;;;;14.33;11.33;;;;;;;;5005560;28;45617;-62
2023/02/16 19:13:56;;;;;;;;;15.33;14.00;;;;;;;;5002480;28;45459;-62
2023/02/16 19:16:21;;;;;;;;;18.33;14.67;;;;;;;;5005327;28;46028;-62
2023/02/16 19:18:47;;;;;;;;;12.67;12.67;;;;;;;;4997913;28;45530;-62
2023/02/16 19:21:12;;;;;;;;;17.00;12.33;;;;;;;;4998057;28;45536;-62
2023/02/16 19:23:38;;;;;;;;;11.67;11.67;;;;;;;;4997425;28;45447;-62
2023/02/16 19:26:04;;;;;;;;;17.33;14.67;;;;;;;;5000871;28;46922;-62
2023/02/16 19:28:30;;;;;;;;;16.00;14.67;;;;;;;;4997695;28;45424;-61
2023/02/16 19:30:58;;;;;;;;;17.33;17.00;;;;;;;;4995435;28;45265;-61
2023/02/16 19:33:24;;;;;;;;;12.00;12.00;;;;;;;;4990728;28;45367;-61
2023/02/16 19:35:49;;;;;;;;;14.00;13.33;;;;;;;;4995319;28;45549;-61
2023/02/16 19:38:14;;;;;;;;;12.67;12.33;;;;;;;;4998204;28;45641;-62
2023/02/16 19:40:39;;;;;;;;;15.67;14.33;;;;;;;;4997447;28;45653;-62
2023/02/16 19:43:04;;;;;;;;;12.33;12.33;;;;;;;;4995315;28;45473;-62
2023/02/16 19:45:30;;;;;;;;;15.00;14.33;;;;;;;;5000700;28;46071;-61
2023/02/16 19:47:55;;;;;;;;;13.67;13.67;;;;;;;;5003636;28;46529;-63
2023/02/16 19:50:20;;;;;;;;;16.33;14.00;;;;;;;;5006429;28;45509;-61
2023/02/16 19:52:45;;;;;;;;;21.00;16.00;;;;;;;;4998530;28;45395;-60
2023/02/16 19:55:10;;;;;;;;;14.33;13.67;;;;;;;;5002034;28;45407;-61
2023/02/16 19:57:36;;;;;;;;;22.33;14.33;;;;;;;;4998360;28;45430;-62
2023/02/16 20:00:02;;;;;;;;;16.67;16.00;;;;;;;;4999480;28;45643;-62
2023/02/16 20:02:28;;;;;;;;;18.67;15.67;;;;;;;;4994078;28;45798;-62
2023/02/16 20:04:53;;;;;;;;;17.00;17.00;;;;;;;;4996724;28;46089;-62